sensor_id;sensor_type;location;lat;lon;timestamp;pressure;altitude;pressure_sealevel;temperature;humidity
71105;BME280;58760;48.716;8.962;2024-01-15T00:00:28;95485.16;;;-2.21;100.00
71105;BME280;58760;48.716;8.962;2024-01-15T00:02:53;95485.75;;;-2.17;100.00
71105;BME280;58760;48.716;8.962;2024-01-15T00:05:19;95496.13;;;-2.17;100.00
71105;BME280;58760;48.716;8.962;2024-01-15T00:07:45;95495.28;;;-2.18;100.00
71105;BME280;58760;48.716;8.962;2024-01-15T00:10:10;95494.59;;;-2.20;100.00
71105;BME280;58760;48.716;8.962;2024-01-15T00:12:36;95497.19;;;-2.20;100.00
71105;BME280;58760;48.716;8.962;2024-01-15T00:15:01;95490.59;;;-2.24;100.00
71105;BME280;58760;48.716;8.962;2024-01-15T00:17:27;95489.75;;;-2.24;100.00
71105;BME280;58760;48.716;8.962;2024-01-15T00:19:52;95493.91;;;-2.22;100.00
71105;BME280;58760;48.716;8.962;2024-01-15T00:22:18;95494.34;;;-2.05;100.00
71105;BME280;58760;48.716;8.962;2024-01-15T00:24:43;95484.66;;;-2.15;100.00
71105;BME280;58760;48.716;8.962;2024-01-15T00:27:08;95495.34;;;-2.29;100.00
71105;BME280;58760;48.716;8.962;2024-01-15T00:29:34;95482.69;;;-2.33;100.00
71105;BME280;58760;48.716;8.962;2024-01-15T00:31:59;95491.31;;;-2.44;100.00
71105;BME280;58760;48.716;8.962;2024-01-15T00:34:25;95497.25;;;-2.53;100.00
71105;BME280;58760;48.716;8.962;2024-01-15T00:36:51;95489.59;;;-2.54;100.00
71105;BME280;58760;48.716;8.962;2024-01-15T00:39:16;95498.44;;;-2.57;100.00
71105;BME280;58760;48.716;8.962;2024-01-15T00:41:42;95486.03;;;-2.65;100.00
71105;BME280;58760;48.716;8.962;2024-01-15T00:44:07;95485.56;;;-2.58;100.00
71105;BME280;58760;48.716;8.962;2024-01-15T00:46:33;95489.94;;;-2.59;100.00
71105;BME280;58760;48.716;8.962;2024-01-15T00:48:58;95484.50;;;-2.56;100.00
71105;BME280;58760;48.716;8.962;2024-01-15T00:51:24;95486.75;;;-2.51;100.00
71105;BME280;58760;48.716;8.962;2024-01-15T00:53:49;95499.25;;;-2.34;100.00
71105;BME280;58760;48.716;8.962;2024-01-15T00:56:14;95492.41;;;-2.35;100.00
71105;BME280;58760;48.716;8.962;2024-01-15T00:58:40;95491.31;;;-2.33;100.00
71105;BME280;58760;48.716;8.962;2024-01-15T01:01:05;95496.97;;;-2.17;100.00
71105;BME280;58760;48.716;8.962;2024-01-15T01:03:31;95499.44;;;-2.15;100.00
71105;BME280;58760;48.716;8.962;2024-01-15T01:05:56;95498.38;;;-2.13;100.00
71105;BME280;58760;48.716;8.962;2024-01-15T01:08:22;95497.19;;;-2.08;100.00
71105;BME280;58760;48.716;8.962;2024-01-15T01:10:47;95483.97;;;-2.17;100.00
71105;BME280;58760;48.716;8.962;2024-01-15T01:13:12;95487.59;;;-2.08;100.00
71105;BME280;58760;48.716;8.962;2024-01-15T01:15:38;95489.75;;;-2.13;100.00
71105;BME280;58760;48.716;8.962;2024-01-15T01:18:04;95480.88;;;-2.11;100.00
71105;BME280;58760;48.716;8.962;2024-01-15T01:20:30;95482.63;;;-2.00;100.00
71105;BME280;58760;48.716;8.962;2024-01-15T01:22:55;95478.50;;;-2.02;100.00
71105;BME280;58760;48.716;8.962;2024-01-15T01:25:20;95480.13;;;-2.01;100.00
71105;BME280;58760;48.716;8.962;2024-01-15T01:27:46;95485.00;;;-2.08;100.00
71105;BME280;58760;48.716;8.962;2024-01-15T01:30:11;95474.59;;;-1.97;100.00
71105;BME280;58760;48.716;8.962;2024-01-15T01:32:37;95474.56;;;-1.86;100.00
71105;BME280;58760;48.716;8.962;2024-01-15T01:35:02;95476.44;;;-1.88;100.00
71105;BME280;58760;48.716;8.962;2024-01-15T01:37:28;95479.34;;;-1.70;100.00
71105;BME280;58760;48.716;8.962;2024-01-15T01:39:53;95481.28;;;-1.83;100.00
71105;BME280;58760;48.716;8.962;2024-01-15T01:42:19;95485.47;;;-1.92;100.00
71105;BME280;58760;48.716;8.962;2024-01-15T01:44:44;95480.28;;;-1.71;100.00
71105;BME280;58760;48.716;8.962;2024-01-15T01:47:10;95475.59;;;-1.88;100.00
71105;BME280;58760;48.716;8.962;2024-01-15T01:49:36;95470.13;;;-2.06;100.00
71105;BME280;58760;48.716;8.962;2024-01-15T01:52:02;95482.03;;;-2.03;100.00
71105;BME280;58760;48.716;8.962;2024-01-15T01:54:32;95484.44;;;-2.12;100.00
71105;BME280;58760;48.716;8.962;2024-01-15T01:56:58;95484.09;;;-2.18;100.00
71105;BME280;58760;48.716;8.962;2024-01-15T01:59:27;95486.38;;;-2.36;100.00
71105;BME280;58760;48.716;8.962;2024-01-15T02:01:54;95480.69;;;-2.19;100.00
71105;BME280;58760;48.716;8.962;2024-01-15T02:04:19;95481.47;;;-2.07;100.00
71105;BME280;58760;48.716;8.962;2024-01-15T02:06:46;95471.22;;;-2.20;100.00
71105;BME280;58760;48.716;8.962;2024-01-15T02:09:14;95484.66;;;-2.15;100.00
71105;BME280;58760;48.716;8.962;2024-01-15T02:11:41;95472.66;;;-2.27;100.00
71105;BME280;58760;48.716;8.962;2024-01-15T02:14:07;95479.03;;;-2.31;100.00
71105;BME280;58760;48.716;8.962;2024-01-15T02:16:33;95475.25;;;-2.27;100.00
71105;BME280;58760;48.716;8.962;2024-01-15T02:18:59;95471.22;;;-2.20;100.00
71105;BME280;58760;48.716;8.962;2024-01-15T02:21:24;95478.69;;;-2.26;100.00
71105;BME280;58760;48.716;8.962;2024-01-15T02:23:51;95464.66;;;-2.46;100.00
71105;BME280;58760;48.716;8.962;2024-01-15T02:26:17;95468.09;;;-2.56;100.00
71105;BME280;58760;48.716;8.962;2024-01-15T02:28:42;95465.38;;;-2.55;100.00
71105;BME280;58760;48.716;8.962;2024-01-15T02:31:09;95461.13;;;-2.56;100.00
71105;BME280;58760;48.716;8.962;2024-01-15T02:33:35;95460.19;;;-2.66;100.00
71105;BME280;58760;48.716;8.962;2024-01-15T02:36:00;95459.94;;;-2.41;100.00
71105;BME280;58760;48.716;8.962;2024-01-15T02:38:25;95463.91;;;-2.26;100.00
71105;BME280;58760;48.716;8.962;2024-01-15T02:40:51;95468.38;;;-2.17;100.00
71105;BME280;58760;48.716;8.962;2024-01-15T02:43:16;95461.91;;;-2.22;100.00
71105;BME280;58760;48.716;8.962;2024-01-15T02:45:44;95456.38;;;-2.29;100.00
71105;BME280;58760;48.716;8.962;2024-01-15T02:48:09;95453.41;;;-2.24;100.00
71105;BME280;58760;48.716;8.962;2024-01-15T02:50:35;95450.88;;;-2.03;100.00
71105;BME280;58760;48.716;8.962;2024-01-15T02:53:00;95448.25;;;-2.03;100.00
71105;BME280;58760;48.716;8.962;2024-01-15T02:55:26;95447.81;;;-2.08;100.00
71105;BME280;58760;48.716;8.962;2024-01-15T02:57:54;95440.47;;;-2.03;100.00
71105;BME280;58760;48.716;8.962;2024-01-15T03:00:20;95445.38;;;-1.89;100.00
71105;BME280;58760;48.716;8.962;2024-01-15T03:02:47;95442.78;;;-1.89;100.00
71105;BME280;58760;48.716;8.962;2024-01-15T03:05:13;95448.81;;;-1.89;100.00
71105;BME280;58760;48.716;8.962;2024-01-15T03:07:38;95445.97;;;-1.86;100.00
71105;BME280;58760;48.716;8.962;2024-01-15T03:10:05;95440.19;;;-1.89;100.00
71105;BME280;58760;48.716;8.962;2024-01-15T03:12:31;95441.72;;;-1.87;100.00
71105;BME280;58760;48.716;8.962;2024-01-15T03:14:57;95438.75;;;-1.82;100.00
71105;BME280;58760;48.716;8.962;2024-01-15T03:17:22;95442.03;;;-1.80;100.00
71105;BME280;58760;48.716;8.962;2024-01-15T03:19:48;95442.63;;;-1.77;100.00
71105;BME280;58760;48.716;8.962;2024-01-15T03:22:15;95435.25;;;-1.72;100.00
71105;BME280;58760;48.716;8.962;2024-01-15T03:24:40;95429.94;;;-1.70;100.00
71105;BME280;58760;48.716;8.962;2024-01-15T03:27:06;95429.13;;;-1.71;100.00
71105;BME280;58760;48.716;8.962;2024-01-15T03:29:31;95424.59;;;-1.69;100.00
71105;BME280;58760;48.716;8.962;2024-01-15T03:31:57;95429.44;;;-1.64;100.00
71105;BME280;58760;48.716;8.962;2024-01-15T03:34:22;95422.78;;;-1.57;100.00
71105;BME280;58760;48.716;8.962;2024-01-15T03:36:47;95424.31;;;-1.54;100.00
71105;BME280;58760;48.716;8.962;2024-01-15T03:39:13;95419.41;;;-1.48;100.00
71105;BME280;58760;48.716;8.962;2024-01-15T03:41:39;95415.63;;;-1.44;100.00
71105;BME280;58760;48.716;8.962;2024-01-15T03:44:05;95427.53;;;-1.41;100.00
71105;BME280;58760;48.716;8.962;2024-01-15T03:46:31;95413.44;;;-1.39;100.00
71105;BME280;58760;48.716;8.962;2024-01-15T03:48:56;95411.09;;;-1.42;100.00
71105;BME280;58760;48.716;8.962;2024-01-15T03:51:21;95403.22;;;-1.31;100.00
71105;BME280;58760;48.716;8.962;2024-01-15T03:53:47;95406.09;;;-1.34;100.00
71105;BME280;58760;48.716;8.962;2024-01-15T03:56:12;95415.94;;;-1.37;100.00
71105;BME280;58760;48.716;8.962;2024-01-15T03:58:38;95408.03;;;-1.26;100.00
71105;BME280;58760;48.716;8.962;2024-01-15T04:01:03;95424.31;;;-1.34;100.00
71105;BME280;58760;48.716;8.962;2024-01-15T04:03:29;95411.19;;;-1.23;100.00
71105;BME280;58760;48.716;8.962;2024-01-15T04:05:55;95406.41;;;-1.27;100.00
71105;BME280;58760;48.716;8.962;2024-01-15T04:08:20;95410.63;;;-1.26;100.00
71105;BME280;58760;48.716;8.962;2024-01-15T04:10:45;95407.88;;;-1.34;100.00
71105;BME280;58760;48.716;8.962;2024-01-15T04:13:11;95404.19;;;-1.32;100.00
71105;BME280;58760;48.716;8.962;2024-01-15T04:15:36;95410.91;;;-1.29;100.00
71105;BME280;58760;48.716;8.962;2024-01-15T04:18:03;95402.72;;;-1.25;100.00
71105;BME280;58760;48.716;8.962;2024-01-15T04:20:28;95401.78;;;-1.24;100.00
71105;BME280;58760;48.716;8.962;2024-01-15T04:22:54;95401.84;;;-1.35;100.00
71105;BME280;58760;48.716;8.962;2024-01-15T04:25:19;95400.31;;;-1.37;100.00
71105;BME280;58760;48.716;8.962;2024-01-15T04:27:44;95409.44;;;-1.43;100.00
71105;BME280;58760;48.716;8.962;2024-01-15T04:30:10;95395.94;;;-1.37;100.00
71105;BME280;58760;48.716;8.962;2024-01-15T04:32:36;95389.00;;;-1.27;100.00
71105;BME280;58760;48.716;8.962;2024-01-15T04:35:01;95392.09;;;-1.33;100.00
71105;BME280;58760;48.716;8.962;2024-01-15T04:37:26;95403.50;;;-1.34;100.00
71105;BME280;58760;48.716;8.962;2024-01-15T04:39:52;95409.25;;;-1.30;100.00
71105;BME280;58760;48.716;8.962;2024-01-15T04:42:21;95404.84;;;-1.30;100.00
71105;BME280;58760;48.716;8.962;2024-01-15T04:44:47;95404.84;;;-1.30;100.00
71105;BME280;58760;48.716;8.962;2024-01-15T04:47:12;95399.91;;;-1.33;100.00
71105;BME280;58760;48.716;8.962;2024-01-15T04:49:38;95401.69;;;-1.33;100.00
71105;BME280;58760;48.716;8.962;2024-01-15T04:52:03;95402.41;;;-1.31;100.00
71105;BME280;58760;48.716;8.962;2024-01-15T04:54:28;95409.13;;;-1.29;100.00
71105;BME280;58760;48.716;8.962;2024-01-15T04:56:54;95408.75;;;-1.24;100.00
71105;BME280;58760;48.716;8.962;2024-01-15T04:59:19;95410.53;;;-1.25;100.00
71105;BME280;58760;48.716;8.962;2024-01-15T05:01:45;95406.53;;;-1.29;100.00
71105;BME280;58760;48.716;8.962;2024-01-15T05:04:10;95408.88;;;-1.26;100.00
71105;BME280;58760;48.716;8.962;2024-01-15T05:06:35;95418.31;;;-1.25;100.00
71105;BME280;58760;48.716;8.962;2024-01-15T05:09:01;95409.56;;;-1.24;100.00
71105;BME280;58760;48.716;8.962;2024-01-15T05:11:26;95410.25;;;-1.22;100.00
71105;BME280;58760;48.716;8.962;2024-01-15T05:13:51;95413.53;;;-1.20;100.00
71105;BME280;58760;48.716;8.962;2024-01-15T05:16:17;95409.56;;;-1.24;100.00
71105;BME280;58760;48.716;8.962;2024-01-15T05:18:42;95419.72;;;-1.21;100.00
71105;BME280;58760;48.716;8.962;2024-01-15T05:21:08;95410.78;;;-1.28;100.00
71105;BME280;58760;48.716;8.962;2024-01-15T05:23:34;95398.03;;;-1.31;100.00
71105;BME280;58760;48.716;8.962;2024-01-15T05:25:59;95404.38;;;-1.24;100.00
71105;BME280;58760;48.716;8.962;2024-01-15T05:28:25;95404.38;;;-1.24;100.00
71105;BME280;58760;48.716;8.962;2024-01-15T05:30:50;95404.50;;;-1.25;100.00
71105;BME280;58760;48.716;8.962;2024-01-15T05:33:16;95398.44;;;-1.26;100.00
71105;BME280;58760;48.716;8.962;2024-01-15T05:35:42;95378.84;;;-1.30;100.00
71105;BME280;58760;48.716;8.962;2024-01-15T05:38:07;95380.97;;;-1.24;100.00
71105;BME280;58760;48.716;8.962;2024-01-15T05:40:33;95385.75;;;-1.19;100.00
71105;BME280;58760;48.716;8.962;2024-01-15T05:42:59;95373.69;;;-1.20;100.00
71105;BME280;58760;48.716;8.962;2024-01-15T05:45:26;95379.03;;;-1.22;100.00
71105;BME280;58760;48.716;8.962;2024-01-15T05:47:52;95376.69;;;-1.25;100.00
71105;BME280;58760;48.716;8.962;2024-01-15T05:50:17;95376.97;;;-1.28;100.00
71105;BME280;58760;48.716;8.962;2024-01-15T05:52:43;95382.16;;;-1.28;100.00
71105;BME280;58760;48.716;8.962;2024-01-15T05:55:08;95377.63;;;-1.26;100.00
71105;BME280;58760;48.716;8.962;2024-01-15T05:57:35;95381.19;;;-1.27;100.00
71105;BME280;58760;48.716;8.962;2024-01-15T06:00:00;95375.03;;;-1.26;100.00
71105;BME280;58760;48.716;8.962;2024-01-15T06:02:25;95369.84;;;-1.26;100.00
71105;BME280;58760;48.716;8.962;2024-01-15T06:04:51;95363.72;;;-1.15;100.00
71105;BME280;58760;48.716;8.962;2024-01-15T06:07:16;95359.63;;;-1.18;100.00
71105;BME280;58760;48.716;8.962;2024-01-15T06:09:41;95357.91;;;-1.28;100.00
71105;BME280;58760;48.716;8.962;2024-01-15T06:12:07;95362.75;;;-1.24;100.00
71105;BME280;58760;48.716;8.962;2024-01-15T06:14:33;95373.53;;;-1.28;100.00
71105;BME280;58760;48.716;8.962;2024-01-15T06:16:58;95359.69;;;-1.29;100.00
71105;BME280;58760;48.716;8.962;2024-01-15T06:19:24;95358.03;;;-1.30;100.00
71105;BME280;58760;48.716;8.962;2024-01-15T06:21:49;95353.00;;;-1.22;100.00
71105;BME280;58760;48.716;8.962;2024-01-15T06:24:14;95342.34;;;-1.19;100.00
71105;BME280;58760;48.716;8.962;2024-01-15T06:26:40;95340.56;;;-1.18;100.00
71105;BME280;58760;48.716;8.962;2024-01-15T06:29:06;95336.72;;;-1.24;100.00
71105;BME280;58760;48.716;8.962;2024-01-15T06:31:31;95330.44;;;-1.21;100.00
71105;BME280;58760;48.716;8.962;2024-01-15T06:33:58;95332.63;;;-1.17;100.00
71105;BME280;58760;48.716;8.962;2024-01-15T06:36:23;95332.63;;;-1.17;100.00
71105;BME280;58760;48.716;8.962;2024-01-15T06:38:48;95332.63;;;-1.17;100.00
71105;BME280;58760;48.716;8.962;2024-01-15T06:41:14;95328.09;;;-1.24;100.00
71105;BME280;58760;48.716;8.962;2024-01-15T06:43:39;95328.31;;;-1.37;100.00
71105;BME280;58760;48.716;8.962;2024-01-15T06:46:05;95329.78;;;-1.44;100.00
71105;BME280;58760;48.716;8.962;2024-01-15T06:48:31;95326.03;;;-1.51;100.00
71105;BME280;58760;48.716;8.962;2024-01-15T06:50:56;95331.56;;;-1.44;100.00
71105;BME280;58760;48.716;8.962;2024-01-15T06:53:22;95337.13;;;-1.49;100.00
71105;BME280;58760;48.716;8.962;2024-01-15T06:55:47;95337.13;;;-1.49;100.00
71105;BME280;58760;48.716;8.962;2024-01-15T06:58:14;95332.38;;;-1.44;100.00
71105;BME280;58760;48.716;8.962;2024-01-15T07:00:39;95332.66;;;-1.47;100.00
71105;BME280;58760;48.716;8.962;2024-01-15T07:03:05;95321.78;;;-1.52;100.00
71105;BME280;58760;48.716;8.962;2024-01-15T07:05:31;95325.59;;;-1.56;100.00
71105;BME280;58760;48.716;8.962;2024-01-15T07:07:57;95331.25;;;-1.51;100.00
71105;BME280;58760;48.716;8.962;2024-01-15T07:10:22;95333.31;;;-1.45;100.00
71105;BME280;58760;48.716;8.962;2024-01-15T07:12:48;95330.91;;;-1.37;100.00
71105;BME280;58760;48.716;8.962;2024-01-15T07:15:14;95330.63;;;-1.43;100.00
71105;BME280;58760;48.716;8.962;2024-01-15T07:17:39;95340.50;;;-1.37;100.00
71105;BME280;58760;48.716;8.962;2024-01-15T07:20:08;95335.72;;;-1.32;100.00
71105;BME280;58760;48.716;8.962;2024-01-15T07:22:37;95344.81;;;-1.47;100.00
71105;BME280;58760;48.716;8.962;2024-01-15T07:25:03;95342.84;;;-1.55;100.00
71105;BME280;58760;48.716;8.962;2024-01-15T07:27:30;95347.53;;;-1.49;100.00
71105;BME280;58760;48.716;8.962;2024-01-15T07:29:57;95350.09;;;-1.59;100.00
71105;BME280;58760;48.716;8.962;2024-01-15T07:32:23;95346.66;;;-1.59;100.00
71105;BME280;58760;48.716;8.962;2024-01-15T07:34:48;95345.03;;;-1.60;100.00
71105;BME280;58760;48.716;8.962;2024-01-15T07:37:14;95353.78;;;-1.61;100.00
71105;BME280;58760;48.716;8.962;2024-01-15T07:39:39;95357.50;;;-1.54;100.00
71105;BME280;58760;48.716;8.962;2024-01-15T07:42:05;95347.22;;;-1.55;100.00
71105;BME280;58760;48.716;8.962;2024-01-15T07:44:30;95354.19;;;-1.56;100.00
71105;BME280;58760;48.716;8.962;2024-01-15T07:46:56;95346.16;;;-1.53;100.00
71105;BME280;58760;48.716;8.962;2024-01-15T07:49:21;95354.59;;;-1.61;100.00
71105;BME280;58760;48.716;8.962;2024-01-15T07:51:48;95352.22;;;-1.43;100.00
71105;BME280;58760;48.716;8.962;2024-01-15T07:54:14;95343.91;;;-1.37;100.00
71105;BME280;58760;48.716;8.962;2024-01-15T07:57:00;95345.28;;;-1.33;100.00
71105;BME280;58760;48.716;8.962;2024-01-15T07:59:26;95338.63;;;-1.26;100.00
71105;BME280;58760;48.716;8.962;2024-01-15T08:01:52;95345.78;;;-1.18;100.00
71105;BME280;58760;48.716;8.962;2024-01-15T08:04:18;95337.06;;;-1.08;100.00
71105;BME280;58760;48.716;8.962;2024-01-15T08:06:44;95339.00;;;-0.90;100.00
71105;BME280;58760;48.716;8.962;2024-01-15T08:09:10;95351.34;;;-0.92;100.00
71105;BME280;58760;48.716;8.962;2024-01-15T08:11:37;95334.38;;;-0.87;100.00
71105;BME280;58760;48.716;8.962;2024-01-15T08:14:04;95330.13;;;-0.88;100.00
71105;BME280;58760;48.716;8.962;2024-01-15T08:16:29;95327.94;;;-0.83;100.00
71105;BME280;58760;48.716;8.962;2024-01-15T08:18:55;95330.00;;;-0.86;100.00
71105;BME280;58760;48.716;8.962;2024-01-15T08:21:20;95327.56;;;-0.78;100.00
71105;BME280;58760;48.716;8.962;2024-01-15T08:23:45;95326.31;;;-0.74;100.00
71105;BME280;58760;48.716;8.962;2024-01-15T08:26:11;95330.28;;;-0.80;100.00
71105;BME280;58760;48.716;8.962;2024-01-15T08:28:36;95325.75;;;-0.78;100.00
71105;BME280;58760;48.716;8.962;2024-01-15T08:31:02;95319.06;;;-0.71;100.00
71105;BME280;58760;48.716;8.962;2024-01-15T08:33:28;95322.91;;;-0.65;100.00
71105;BME280;58760;48.716;8.962;2024-01-15T08:35:54;95313.84;;;-0.61;100.00
71105;BME280;58760;48.716;8.962;2024-01-15T08:38:19;95320.72;;;-0.60;100.00
71105;BME280;58760;48.716;8.962;2024-01-15T08:40:45;95307.81;;;-0.52;100.00
71105;BME280;58760;48.716;8.962;2024-01-15T08:43:10;95325.38;;;-0.54;100.00
71105;BME280;58760;48.716;8.962;2024-01-15T08:45:35;95317.44;;;-0.52;100.00
71105;BME280;58760;48.716;8.962;2024-01-15T08:48:01;95314.56;;;-0.49;100.00
71105;BME280;58760;48.716;8.962;2024-01-15T08:50:27;95310.88;;;-0.47;100.00
71105;BME280;58760;48.716;8.962;2024-01-15T08:52:52;95319.91;;;-0.51;100.00
71105;BME280;58760;48.716;8.962;2024-01-15T08:55:18;95312.09;;;-0.51;100.00
71105;BME280;58760;48.716;8.962;2024-01-15T08:57:43;95310.59;;;-0.44;100.00
71105;BME280;58760;48.716;8.962;2024-01-15T09:00:09;95312.09;;;-0.32;100.00
71105;BME280;58760;48.716;8.962;2024-01-15T09:02:35;95306.75;;;-0.30;100.00
71105;BME280;58760;48.716;8.962;2024-01-15T09:05:01;95309.50;;;-0.32;100.00
71105;BME280;58760;48.716;8.962;2024-01-15T09:07:26;95303.59;;;-0.34;100.00
71105;BME280;58760;48.716;8.962;2024-01-15T09:09:52;95301.81;;;-0.24;100.00
71105;BME280;58760;48.716;8.962;2024-01-15T09:12:18;95294.97;;;-0.25;100.00
71105;BME280;58760;48.716;8.962;2024-01-15T09:14:44;95296.88;;;-0.27;100.00
71105;BME280;58760;48.716;8.962;2024-01-15T09:17:09;95295.50;;;-0.21;100.00
71105;BME280;58760;48.716;8.962;2024-01-15T09:19:35;95292.78;;;-0.20;100.00
71105;BME280;58760;48.716;8.962;2024-01-15T09:22:00;95297.28;;;-0.12;100.00
71105;BME280;58760;48.716;8.962;2024-01-15T09:24:26;95293.44;;;-0.08;100.00
71105;BME280;58760;48.716;8.962;2024-01-15T09:26:52;95282.91;;;-0.07;100.00
71105;BME280;58760;48.716;8.962;2024-01-15T09:29:17;95280.41;;;0.02;100.00
71105;BME280;58760;48.716;8.962;2024-01-15T09:31:43;95278.19;;;0.07;100.00
71105;BME280;58760;48.716;8.962;2024-01-15T09:34:08;95276.81;;;0.12;100.00
71105;BME280;58760;48.716;8.962;2024-01-15T09:36:39;95283.53;;;0.15;100.00
71105;BME280;58760;48.716;8.962;2024-01-15T09:39:05;95282.56;;;0.16;100.00
71105;BME280;58760;48.716;8.962;2024-01-15T09:41:34;95276.50;;;0.25;100.00
71105;BME280;58760;48.716;8.962;2024-01-15T09:44:01;95276.94;;;0.11;100.00
71105;BME280;58760;48.716;8.962;2024-01-15T09:46:27;95279.81;;;0.17;100.00
71105;BME280;58760;48.716;8.962;2024-01-15T09:48:53;95291.63;;;0.12;100.00
71105;BME280;58760;48.716;8.962;2024-01-15T09:51:19;95282.88;;;0.13;100.00
71105;BME280;58760;48.716;8.962;2024-01-15T09:53:46;95287.50;;;0.28;100.00
71105;BME280;58760;48.716;8.962;2024-01-15T09:56:12;95276.91;;;0.20;100.00
71105;BME280;58760;48.716;8.962;2024-01-15T09:58:38;95284.63;;;0.22;100.00
71105;BME280;58760;48.716;8.962;2024-01-15T10:01:04;95275.44;;;0.18;100.00
71105;BME280;58760;48.716;8.962;2024-01-15T10:03:30;95277.47;;;0.24;100.00
71105;BME280;58760;48.716;8.962;2024-01-15T10:05:58;95274.59;;;0.17;100.00
71105;BME280;58760;48.716;8.962;2024-01-15T10:08:25;95273.63;;;0.28;100.00
71105;BME280;58760;48.716;8.962;2024-01-15T10:10:50;95266.94;;;0.16;100.00
71105;BME280;58760;48.716;8.962;2024-01-15T10:13:17;95263.50;;;0.15;100.00
71105;BME280;58760;48.716;8.962;2024-01-15T10:15:45;95274.00;;;0.33;100.00
71105;BME280;58760;48.716;8.962;2024-01-15T10:18:12;95270.16;;;0.37;100.00
71105;BME280;58760;48.716;8.962;2024-01-15T10:20:37;95256.84;;;0.30;100.00
71105;BME280;58760;48.716;8.962;2024-01-15T10:23:03;95265.47;;;0.40;100.00
71105;BME280;58760;48.716;8.962;2024-01-15T10:25:29;95257.53;;;0.42;100.00
71105;BME280;58760;48.716;8.962;2024-01-15T10:28:03;95261.34;;;0.47;100.00
71105;BME280;58760;48.716;8.962;2024-01-15T10:30:29;95243.50;;;0.43;100.00
71105;BME280;58760;48.716;8.962;2024-01-15T10:32:59;95240.75;;;0.44;100.00
71105;BME280;58760;48.716;8.962;2024-01-15T10:35:30;95241.84;;;0.51;100.00
71105;BME280;58760;48.716;8.962;2024-01-15T10:37:56;95230.84;;;0.48;100.00
71105;BME280;58760;48.716;8.962;2024-01-15T10:40:21;95241.59;;;0.45;100.00
71105;BME280;58760;48.716;8.962;2024-01-15T10:42:47;95236.50;;;0.43;100.00
71105;BME280;58760;48.716;8.962;2024-01-15T10:45:13;95236.06;;;0.48;100.00
71105;BME280;58760;48.716;8.962;2024-01-15T10:47:40;95229.75;;;0.50;100.00
71105;BME280;58760;48.716;8.962;2024-01-15T10:50:06;95237.56;;;0.50;100.00
71105;BME280;58760;48.716;8.962;2024-01-15T10:52:37;95236.06;;;0.48;100.00
71105;BME280;58760;48.716;8.962;2024-01-15T10:55:03;95226.75;;;0.45;100.00
71105;BME280;58760;48.716;8.962;2024-01-15T10:57:29;95234.44;;;0.47;100.00
71105;BME280;58760;48.716;8.962;2024-01-15T10:59:55;95232.78;;;0.46;100.00
71105;BME280;58760;48.716;8.962;2024-01-15T11:02:21;95233.34;;;0.40;100.00
71105;BME280;58760;48.716;8.962;2024-01-15T11:04:47;95237.44;;;0.42;100.00
71105;BME280;58760;48.716;8.962;2024-01-15T11:07:13;95241.63;;;0.35;100.00
71105;BME280;58760;48.716;8.962;2024-01-15T11:09:39;95243.53;;;0.33;100.00
71105;BME280;58760;48.716;8.962;2024-01-15T11:12:10;95235.88;;;0.32;100.00
71105;BME280;58760;48.716;8.962;2024-01-15T11:17:04;95212.47;;;0.40;100.00
71105;BME280;58760;48.716;8.962;2024-01-15T11:22:06;95220.22;;;0.59;100.00
71105;BME280;58760;48.716;8.962;2024-01-15T11:24:39;95220.09;;;0.61;100.00
71105;BME280;58760;48.716;8.962;2024-01-15T11:27:06;95219.63;;;0.65;100.00
71105;BME280;58760;48.716;8.962;2024-01-15T11:29:36;95223.94;;;0.57;100.00
71105;BME280;58760;48.716;8.962;2024-01-15T11:35:03;95230.75;;;0.40;100.00
71105;BME280;58760;48.716;8.962;2024-01-15T11:40:20;95231.97;;;0.36;100.00
71105;BME280;58760;48.716;8.962;2024-01-15T11:42:46;95242.81;;;0.41;100.00
71105;BME280;58760;48.716;8.962;2024-01-15T11:45:13;95236.25;;;0.37;100.00
71105;BME280;58760;48.716;8.962;2024-01-15T11:50:21;95251.22;;;0.35;100.00
71105;BME280;58760;48.716;8.962;2024-01-15T11:53:02;95239.13;;;0.34;100.00
71105;BME280;58760;48.716;8.962;2024-01-15T11:55:35;95257.00;;;0.38;100.00
71105;BME280;58760;48.716;8.962;2024-01-15T11:58:01;95255.03;;;0.40;100.00
71105;BME280;58760;48.716;8.962;2024-01-15T12:00:28;95270.72;;;0.31;100.00
71105;BME280;58760;48.716;8.962;2024-01-15T12:02:54;95265.94;;;0.17;100.00
71105;BME280;58760;48.716;8.962;2024-01-15T12:05:20;95273.25;;;0.04;100.00
71105;BME280;58760;48.716;8.962;2024-01-15T12:07:48;95271.91;;;-0.01;100.00
71105;BME280;58760;48.716;8.962;2024-01-15T12:10:16;95275.47;;;-0.11;100.00
71105;BME280;58760;48.716;8.962;2024-01-15T12:13:05;95289.88;;;-0.07;100.00
71105;BME280;58760;48.716;8.962;2024-01-15T12:15:34;95299.59;;;-0.09;100.00
71105;BME280;58760;48.716;8.962;2024-01-15T12:18:01;95290.28;;;-0.12;100.00
71105;BME280;58760;48.716;8.962;2024-01-15T12:20:29;95299.47;;;-0.08;100.00
71105;BME280;58760;48.716;8.962;2024-01-15T12:22:55;95304.81;;;-0.09;100.00
71105;BME280;58760;48.716;8.962;2024-01-15T12:25:24;95292.78;;;-0.20;100.00
71105;BME280;58760;48.716;8.962;2024-01-15T12:27:50;95297.00;;;-0.09;100.00
71105;BME280;58760;48.716;8.962;2024-01-15T12:30:16;95282.63;;;-0.13;100.00
71105;BME280;58760;48.716;8.962;2024-01-15T12:32:42;95299.88;;;-0.03;100.00
71105;BME280;58760;48.716;8.962;2024-01-15T12:35:10;95300.16;;;-0.06;100.00
71105;BME280;58760;48.716;8.962;2024-01-15T12:37:36;95304.53;;;-0.06;100.00
71105;BME280;58760;48.716;8.962;2024-01-15T12:40:03;95319.38;;;-0.16;100.00
71105;BME280;58760;48.716;8.962;2024-01-15T12:42:32;95320.06;;;-0.24;100.00
71105;BME280;58760;48.716;8.962;2024-01-15T12:44:57;95314.31;;;-0.27;100.00
71105;BME280;58760;48.716;8.962;2024-01-15T12:47:23;95322.13;;;-0.18;100.00
71105;BME280;58760;48.716;8.962;2024-01-15T12:49:48;95327.88;;;-0.24;100.00
71105;BME280;58760;48.716;8.962;2024-01-15T12:52:19;95320.19;;;-0.35;100.00
71105;BME280;58760;48.716;8.962;2024-01-15T12:54:45;95336.38;;;-0.22;100.00
71105;BME280;58760;48.716;8.962;2024-01-15T12:57:10;95333.22;;;-0.35;100.00
71105;BME280;58760;48.716;8.962;2024-01-15T12:59:35;95325.13;;;-0.32;100.00